createdAt,value
2022-10-13T00:00:21.732Z,99705.56
2022-10-13T00:05:24.620Z,99704.28
2022-10-13T00:10:29.020Z,99702.66
2022-10-13T00:15:32.032Z,99704.03
2022-10-13T00:20:35.096Z,99695.00
2022-10-13T00:25:43.551Z,99694.19
2022-10-13T00:30:47.392Z,99696.19
2022-10-13T00:35:51.095Z,99700.03
2022-10-13T00:40:57.345Z,99703.53
2022-10-13T00:46:00.338Z,99696.78
2022-10-13T00:51:03.383Z,99689.69
2022-10-13T00:56:10.946Z,99696.22
2022-10-13T01:01:13.834Z,99689.31
2022-10-13T01:06:22.523Z,99683.50
2022-10-13T01:11:44.305Z,99679.22
2022-10-13T01:16:56.814Z,99680.44
2022-10-13T01:22:13.953Z,99685.44
2022-10-13T01:27:37.725Z,99679.06
2022-10-13T01:33:00.310Z,99677.72
2022-10-13T01:38:09.135Z,99664.28
2022-10-13T01:43:15.399Z,99668.06
2022-10-13T01:48:20.686Z,99655.13
2022-10-13T01:53:28.552Z,99648.63
2022-10-13T01:58:34.695Z,99645.38
2022-10-13T02:03:48.698Z,99650.88
2022-10-13T02:08:59.709Z,99643.50
2022-10-13T02:14:06.368Z,99645.38
2022-10-13T02:19:14.223Z,99643.50
2022-10-13T02:24:17.452Z,99638.97
2022-10-13T02:29:20.832Z,99638.97
2022-10-13T02:34:25.068Z,99644.31
2022-10-13T02:39:27.989Z,99632.56
2022-10-13T02:44:30.869Z,99630.25
2022-10-13T02:49:35.142Z,99629.78
2022-10-13T02:54:38.084Z,99630.94
2022-10-13T02:59:40.947Z,99632.84
2022-10-13T03:04:45.181Z,99628.88
2022-10-13T03:09:48.090Z,99622.13
2022-10-13T03:20:14.581Z,99613.94
2022-10-13T03:25:17.947Z,99617.84
2022-10-13T03:30:20.881Z,99624.94
2022-10-13T03:35:25.137Z,99614.69
2022-10-13T03:40:28.412Z,99609.84
2022-10-13T03:45:31.550Z,99612.22
2022-10-13T03:50:35.815Z,99612.28
2022-10-13T03:55:38.825Z,99623.31
2022-10-13T04:00:41.936Z,99607.63
2022-10-13T04:05:46.233Z,99610.94
2022-10-13T04:10:49.123Z,99595.66
2022-10-13T04:15:52.050Z,99604.78
2022-10-13T04:20:56.355Z,99615.13
2022-10-13T04:25:59.266Z,99606.31
2022-10-13T04:31:02.228Z,99601.41
2022-10-13T04:36:11.565Z,99592.53
2022-10-13T04:41:16.606Z,99591.88
2022-10-13T04:46:22.090Z,99598.19
2022-10-13T04:51:27.316Z,99595.47
2022-10-13T04:56:30.939Z,99584.81
2022-10-13T05:01:38.588Z,99583.81
2022-10-13T05:07:12.598Z,99586.44
2022-10-13T05:12:08.567Z,99577.06
2022-10-13T05:17:11.503Z,99571.91
2022-10-13T05:22:15.745Z,99573.53
2022-10-13T05:27:18.657Z,99573.34
2022-10-13T05:32:22.004Z,99556.13
2022-10-13T05:37:26.586Z,99556.72
2022-10-13T05:42:30.081Z,99565.00
2022-10-13T05:47:32.971Z,99559.16
2022-10-13T05:52:38.687Z,99554.88
2022-10-13T05:57:45.040Z,99558.31
2022-10-13T06:02:53.388Z,99563.34
2022-10-13T06:07:58.222Z,99567.94
2022-10-13T06:13:01.119Z,99562.41
2022-10-13T06:18:08.867Z,99551.78
2022-10-13T06:23:13.156Z,99556.91
2022-10-13T06:28:16.335Z,99566.63
2022-10-13T06:33:19.252Z,99574.78
2022-10-13T06:38:23.552Z,99575.88
2022-10-13T06:43:34.385Z,99574.22
2022-10-13T06:48:42.552Z,99574.53
2022-10-13T06:53:46.868Z,99591.94
2022-10-13T06:58:49.975Z,99584.47
2022-10-13T07:03:53.328Z,99588.88
2022-10-13T07:08:58.419Z,99591.88
2022-10-13T07:19:09.743Z,99601.31
2022-10-13T07:24:15.315Z,99591.31
2022-10-13T07:29:18.348Z,99591.03
2022-10-13T07:34:21.232Z,99581.19
2022-10-13T07:39:25.560Z,99566.19
2022-10-13T07:44:28.526Z,99565.22
2022-10-13T07:49:31.461Z,99556.78
2022-10-13T07:54:36.692Z,99558.97
2022-10-13T07:59:39.935Z,99555.75
2022-10-13T08:04:46.082Z,99554.63
2022-10-13T08:09:50.382Z,99550.28
2022-10-13T08:14:53.355Z,99545.34
2022-10-13T08:19:56.392Z,99534.41
2022-10-13T08:25:03.571Z,99533.25
2022-10-13T08:30:07.752Z,99513.41
2022-10-13T08:35:14.600Z,99522.94
2022-10-13T08:40:23.070Z,99507.13
2022-10-13T08:45:41.031Z,99506.34
2022-10-13T08:50:48.942Z,99505.13
2022-10-13T08:55:58.287Z,99493.56
2022-10-13T09:01:11.562Z,99497.59
2022-10-13T09:06:17.023Z,99486.06
2022-10-13T09:11:21.868Z,99482.59
2022-10-13T09:16:29.936Z,99482.84
2022-10-13T09:21:33.084Z,99480.66
2022-10-13T09:26:40.448Z,99475.91
2022-10-13T09:31:43.789Z,99469.25
2022-10-13T09:37:01.811Z,99476.41
2022-10-13T09:42:23.282Z,99467.34
2022-10-13T09:47:27.780Z,99457.06
2022-10-13T09:52:30.886Z,99462.25
2022-10-13T09:57:42.535Z,99463.34
2022-10-13T10:02:50.156Z,99455.72
2022-10-13T10:07:53.524Z,99465.97
2022-10-13T10:12:58.204Z,99455.69
2022-10-13T10:18:08.256Z,99446.72
2022-10-13T10:23:20.260Z,99447.06
2022-10-13T10:28:50.283Z,99439.81
2022-10-13T10:34:03.266Z,99441.63
2022-10-13T10:39:18.917Z,99441.47
2022-10-13T10:44:30.618Z,99432.84
2022-10-13T10:49:35.237Z,99433.56
2022-10-13T10:54:48.305Z,99418.66
2022-10-13T11:00:01.831Z,99409.50
2022-10-13T11:05:06.552Z,99406.56
2022-10-13T11:10:22.099Z,99390.59
2022-10-13T11:15:31.168Z,99393.78
2022-10-13T11:20:59.219Z,99385.19
2022-10-13T11:26:29.014Z,99364.53
2022-10-13T11:31:49.866Z,99359.88
2022-10-13T11:36:57.795Z,99355.13
2022-10-13T11:42:10.479Z,99346.59
2022-10-13T11:47:30.375Z,99346.31
2022-10-13T11:52:50.110Z,99351.97
2022-10-13T11:57:53.285Z,99347.63
2022-10-13T12:02:57.621Z,99336.19
2022-10-13T12:08:05.580Z,99334.84
2022-10-13T12:13:22.635Z,99324.41
2022-10-13T12:18:28.759Z,99322.34
2022-10-13T12:23:33.027Z,99329.28
2022-10-13T12:28:49.582Z,99333.66
2022-10-13T12:33:55.960Z,99324.81
2022-10-13T12:39:02.769Z,99330.03
2022-10-13T12:44:07.112Z,99327.66
2022-10-13T12:49:18.199Z,99326.34
2022-10-13T12:54:24.531Z,99322.72
2022-10-13T12:59:30.025Z,99319.91
2022-10-13T13:04:43.491Z,99328.56
2022-10-13T13:10:01.684Z,99324.22
2022-10-13T13:15:32.936Z,99315.50
2022-10-13T13:20:38.354Z,99315.53
2022-10-13T13:25:41.385Z,99319.81
2022-10-13T13:30:44.656Z,99318.13
2022-10-13T13:35:49.587Z,99313.16
2022-10-13T13:40:52.552Z,99300.19
2022-10-13T13:45:55.557Z,99302.09
2022-10-13T13:51:00.287Z,99299.78
2022-10-13T13:56:03.960Z,99302.53
2022-10-13T14:01:06.980Z,99299.38
2022-10-13T14:06:18.587Z,99291.72
2022-10-13T14:11:21.622Z,99294.81
2022-10-13T14:16:24.748Z,99274.47
2022-10-13T14:21:30.412Z,99265.13
2022-10-13T14:26:33.365Z,99281.00
2022-10-13T14:31:36.318Z,99272.34
2022-10-13T14:36:40.600Z,99276.22
2022-10-13T14:41:43.665Z,99272.81
2022-10-13T14:46:46.839Z,99263.03
2022-10-13T14:51:51.149Z,99268.78
2022-10-13T14:56:54.086Z,99263.03
2022-10-13T15:01:57.123Z,99265.16
2022-10-13T15:07:01.442Z,99257.22
2022-10-13T15:12:06.728Z,99256.53
2022-10-13T15:17:10.066Z,99257.00
2022-10-13T15:22:24.132Z,99247.44
2022-10-13T15:27:27.591Z,99231.63
2022-10-13T15:32:30.536Z,99235.19
2022-10-13T15:37:38.169Z,99241.19
2022-10-13T15:42:41.136Z,99244.28
2022-10-13T15:47:44.136Z,99235.78
2022-10-13T15:52:48.492Z,99240.34
2022-10-13T15:57:51.909Z,99247.34
2022-10-13T16:02:55.027Z,99241.69
2022-10-13T16:08:00.106Z,99240.94
2022-10-13T16:13:03.132Z,99245.41
2022-10-13T16:18:06.215Z,99244.28
2022-10-13T16:23:10.641Z,99224.50
2022-10-13T16:28:15.037Z,99230.66
2022-10-13T16:33:18.048Z,99231.59
2022-10-13T16:38:22.438Z,99234.47
2022-10-13T16:43:25.492Z,99242.13
2022-10-13T16:48:31.022Z,99246.44
2022-10-13T16:53:35.666Z,99261.09
2022-10-13T16:58:43.356Z,99257.69
2022-10-13T17:03:47.320Z,99266.72
2022-10-13T17:08:51.777Z,99262.66
2022-10-13T17:13:56.561Z,99272.31
2022-10-13T17:18:59.765Z,99277.19
2022-10-13T17:24:17.656Z,99284.38
2022-10-13T17:29:20.632Z,99282.41
2022-10-13T17:34:23.617Z,99291.97
2022-10-13T17:39:29.147Z,99285.88
2022-10-13T17:44:33.612Z,99297.34
2022-10-13T17:49:36.957Z,99298.72
2022-10-13T17:54:41.410Z,99291.84
2022-10-13T17:59:44.415Z,99300.22
2022-10-13T18:04:47.392Z,99301.94
2022-10-13T18:09:53.722Z,99302.03
2022-10-13T18:14:56.668Z,99291.38
2022-10-13T18:19:59.626Z,99284.34
2022-10-13T18:25:04.156Z,99285.41
2022-10-13T18:30:09.925Z,99289.19
2022-10-13T18:35:13.021Z,99296.16
2022-10-13T18:40:17.464Z,99283.00
2022-10-13T18:45:22.111Z,99280.34
2022-10-13T18:50:25.026Z,99280.00
2022-10-13T18:55:30.138Z,99280.91
2022-10-13T19:00:33.324Z,99268.56
2022-10-13T19:05:38.396Z,99266.47
2022-10-13T19:10:42.775Z,99266.41
2022-10-13T19:15:45.732Z,99262.91
2022-10-13T19:20:48.875Z,99273.38
2022-10-13T19:25:53.470Z,99269.19
2022-10-13T19:30:56.529Z,99255.47
2022-10-13T19:35:59.486Z,99263.47
2022-10-13T19:41:06.602Z,99249.81
2022-10-13T19:46:10.363Z,99261.00
2022-10-13T19:51:14.829Z,99252.56
2022-10-13T19:56:24.779Z,99256.69
2022-10-13T20:01:28.143Z,99254.31
2022-10-13T20:06:31.362Z,99253.41
2022-10-13T20:11:36.102Z,99261.53
2022-10-13T20:16:39.166Z,99266.44
2022-10-13T20:21:42.056Z,99272.94
2022-10-13T20:26:48.438Z,99256.31
2022-10-13T20:31:51.625Z,99265.25
2022-10-13T20:36:54.611Z,99263.19
2022-10-13T20:41:58.972Z,99260.63
2022-10-13T20:47:03.599Z,99272.25
2022-10-13T20:52:06.554Z,99273.50
2022-10-13T20:57:10.869Z,99265.63
2022-10-13T21:02:14.326Z,99271.63
2022-10-13T21:07:17.261Z,99270.66
2022-10-13T21:12:21.601Z,99271.72
2022-10-13T21:17:24.575Z,99259.47
2022-10-13T21:22:28.443Z,99257.13
2022-10-13T21:27:34.940Z,99254.13
2022-10-13T21:32:38.065Z,99246.69
2022-10-13T21:37:41.028Z,99244.47
2022-10-13T21:42:45.292Z,99242.66
2022-10-13T21:47:48.201Z,99245.22
2022-10-13T21:52:51.060Z,99249.13
2022-10-13T21:57:56.686Z,99241.84
2022-10-13T22:03:02.514Z,99246.19
2022-10-13T22:08:05.803Z,99248.03
2022-10-13T22:13:10.167Z,99245.66
2022-10-13T22:18:13.193Z,99241.53
2022-10-13T22:23:16.176Z,99234.22
2022-10-13T22:28:21.883Z,99225.41
2022-10-13T22:33:24.927Z,99216.78
2022-10-13T22:38:30.556Z,99225.25
2022-10-13T22:43:35.692Z,99217.38
2022-10-13T22:48:47.944Z,99216.34
2022-10-13T22:53:51.683Z,99222.78
2022-10-13T22:58:57.663Z,99227.66
2022-10-13T23:04:02.219Z,99221.13
2022-10-13T23:09:07.479Z,99215.31
2022-10-13T23:14:12.867Z,99217.41
2022-10-13T23:19:15.903Z,99231.50
2022-10-13T23:24:18.906Z,99222.09
2022-10-13T23:29:23.565Z,99218.56
2022-10-13T23:34:28.216Z,99214.09
2022-10-13T23:39:31.277Z,99219.38
2022-10-13T23:44:35.655Z,99211.91
2022-10-13T23:49:38.743Z,99204.66
2022-10-13T23:54:41.742Z,99202.66
2022-10-13T23:59:47.335Z,99201.47
